Terminal Aerodrome Forecast
Issued by NWS

Home | Current Version | Previous Version | Text Only | Print | Product List | Glossary On
Versions: 1 2 3 4 5 6 7 8 9 10 11 12 13 14 15 16 17 18
000
FTUS46 KMTR 232300
TAFMRY
TAF
KMRY 232339Z 2400/2424 27010G15KT P6SM SKC
     FM240300 23005KT P6SM SKC
     FM240700 20004KT P6SM FEW200
     FM241200 17004KT P6SM BKN200
      TEMPO 2414/2418 29008KT P6SM BKN015
     FM241800 27010KT P6SM SCT200=

USA.gov is the U.S. government's official web portal to all federal, state and local government web resources and services.